Time;durP1;ratioP1;P1;durP2;ratioP2;P2;SDS_P1;SDS_P2;PMS_P1;PMS_P2;Temp;Humidity;BMP_temperature;BMP_pressure;BME280_temperature;BME280_humidity;BME280_pressure;Samples;Min_cycle;Max_cycle;Signal;HPM_P1;HPM_P2
2021/04/01 00:02:06;;;;;;;14.45;6.55;;;12.60;37.10;;;;;;4958081;28;20213;-89
2021/04/01 00:04:33;;;;;;;11.30;6.10;;;12.60;37.20;;;;;;4958678;28;20214;-85
2021/04/01 00:07:00;;;;;;;5.20;4.70;;;12.60;37.30;;;;;;4955983;28;20240;-88
2021/04/01 00:09:28;;;;;;;9.23;5.70;;;12.50;37.60;;;;;;4959750;28;20218;-89
2021/04/01 00:11:54;;;;;;;7.85;5.65;;;12.50;38.00;;;;;;4959810;28;20215;-90
2021/04/01 00:14:24;;;;;;;10.82;5.82;;;12.50;38.00;;;;;;4959823;28;20258;-89
2021/04/01 00:16:51;;;;;;;6.63;5.32;;;12.40;38.10;;;;;;4959925;28;20257;-89
2021/04/01 00:19:17;;;;;;;8.70;6.28;;;12.40;38.20;;;;;;4959869;28;20203;-89
2021/04/01 00:21:44;;;;;;;9.35;7.03;;;12.50;38.70;;;;;;4959914;28;20246;-89
2021/04/01 00:24:11;;;;;;;8.25;6.00;;;12.40;39.10;;;;;;4960041;28;20255;-85
2021/04/01 00:26:39;;;;;;;11.38;5.60;;;12.40;38.40;;;;;;4960040;28;20210;-86
2021/04/01 00:29:06;;;;;;;13.32;5.80;;;12.40;37.90;;;;;;4959789;28;20221;-86
2021/04/01 00:31:32;;;;;;;8.43;5.40;;;12.30;38.10;;;;;;4958293;28;20245;-90
2021/04/01 00:33:59;;;;;;;12.75;5.72;;;12.20;38.20;;;;;;4958115;28;20214;-89
2021/04/01 00:36:25;;;;;;;7.30;5.30;;;12.10;38.30;;;;;;4949128;29;20227;-89
2021/04/01 00:38:52;;;;;;;8.90;5.50;;;12.00;38.40;;;;;;4948328;29;20239;-88
2021/04/01 00:41:19;;;;;;;8.65;5.25;;;12.00;38.90;;;;;;4953696;29;20234;-89
2021/04/01 00:43:47;;;;;;;7.95;5.13;;;12.00;39.00;;;;;;4958595;28;20206;-89
2021/04/01 00:46:13;;;;;;;7.13;5.22;;;11.90;39.00;;;;;;4957899;28;20206;-89
2021/04/01 00:48:40;;;;;;;8.80;5.03;;;11.90;39.60;;;;;;4958973;28;20215;-90
2021/04/01 00:51:06;;;;;;;7.28;5.05;;;11.80;39.80;;;;;;4959357;28;20239;-89
2021/04/01 00:53:33;;;;;;;9.80;5.45;;;11.80;39.50;;;;;;4960874;28;20205;-88
2021/04/01 00:56:00;;;;;;;7.82;5.15;;;11.80;39.50;;;;;;4963300;28;20190;-89
2021/04/01 00:58:28;;;;;;;8.27;5.20;;;11.80;40.00;;;;;;4963288;28;20205;-89
2021/04/01 01:01:07;;;;;;;8.38;5.90;;;11.80;40.10;;;;;;4963321;28;20202;-91
2021/04/01 01:03:34;;;;;;;10.38;4.72;;;11.80;40.20;;;;;;4963247;28;20214;-89
2021/04/01 01:06:01;;;;;;;5.80;5.22;;;11.80;40.50;;;;;;4962928;28;20230;-89
2021/04/01 01:08:28;;;;;;;8.57;5.15;;;11.80;40.70;;;;;;4958417;28;20210;-89
2021/04/01 01:10:54;;;;;;;8.45;5.50;;;11.80;41.00;;;;;;4956226;29;20210;-87
2021/04/01 01:13:21;;;;;;;10.38;5.53;;;11.80;41.10;;;;;;4960415;29;20231;-89
2021/04/01 01:15:47;;;;;;;11.00;4.68;;;11.70;41.00;;;;;;4959930;28;20207;-91
2021/04/01 01:18:15;;;;;;;7.05;4.55;;;11.60;41.00;;;;;;4954567;29;20250;-89
2021/04/01 01:20:42;;;;;;;6.28;4.03;;;11.70;41.10;;;;;;4958408;29;20218;-89
2021/04/01 01:23:11;;;;;;;7.35;4.78;;;11.70;41.00;;;;;;4959426;28;20246;-89
2021/04/01 01:25:39;;;;;;;9.85;4.78;;;11.60;41.00;;;;;;4960321;28;20223;-89
2021/04/01 01:28:07;;;;;;;7.25;4.63;;;11.60;41.00;;;;;;4962976;28;20217;-88
2021/04/01 01:30:34;;;;;;;4.90;4.00;;;11.60;40.90;;;;;;4962809;28;20270;-91
2021/04/01 01:33:03;;;;;;;8.52;4.70;;;11.60;41.00;;;;;;4960150;28;20227;-90
2021/04/01 01:35:32;;;;;;;4.93;4.40;;;11.60;41.00;;;;;;4955490;29;20238;-88
2021/04/01 01:38:00;;;;;;;6.75;4.80;;;11.50;40.90;;;;;;4959880;28;20206;-89
2021/04/01 01:40:30;;;;;;;7.18;4.72;;;11.50;40.90;;;;;;4954253;29;20230;-89
2021/04/01 01:42:59;;;;;;;4.38;3.97;;;11.40;40.80;;;;;;4951745;29;20211;-89
2021/04/01 01:45:27;;;;;;;5.63;5.05;;;11.30;40.70;;;;;;4956009;29;20210;-88
2021/04/01 01:47:54;;;;;;;9.68;4.60;;;11.30;40.70;;;;;;4961940;28;20199;-87
2021/04/01 01:50:25;;;;;;;4.50;4.07;;;11.40;40.90;;;;;;4962654;28;20230;-85
2021/04/01 06:40:22;;;;;;;10.23;6.23;;;13.30;38.90;;;;;;6282974;22;846043;-89
2021/04/01 06:42:53;;;;;;;6.60;4.97;;;13.40;38.60;;;;;;6272586;22;20158;-88
2021/04/01 06:45:24;;;;;;;7.47;5.00;;;13.50;38.10;;;;;;6271412;23;20170;-89
2021/04/01 06:47:55;;;;;;;8.70;5.43;;;13.60;37.80;;;;;;6259471;23;20244;-90
2021/04/01 06:50:25;;;;;;;9.10;5.40;;;13.70;37.10;;;;;;6256937;23;20221;-90
2021/04/01 06:55:32;;;;;;;9.65;4.93;;;14.00;36.10;;;;;;6321686;22;20187;-81
2021/04/01 06:58:16;;;;;;;5.72;4.95;;;14.10;36.00;;;;;;6321021;22;20192;-85
2021/04/01 07:00:57;;;;;;;7.95;5.00;;;14.30;35.80;;;;;;6323776;22;20164;-83
2021/04/01 07:03:40;;;;;;;13.32;5.32;;;14.40;35.00;;;;;;6325387;22;20196;-83
2021/04/01 07:06:08;;;;;;;10.80;5.77;;;14.70;34.60;;;;;;6327199;22;20640;-83
2021/04/01 07:08:48;;;;;;;6.30;5.10;;;14.90;34.00;;;;;;6325993;22;20969;-83
2021/04/01 07:11:31;;;;;;;7.53;4.97;;;15.10;34.20;;;;;;6324530;22;20474;-83
2021/04/01 07:14:03;;;;;;;9.10;5.43;;;15.20;34.30;;;;;;6332853;22;20405;-80
2021/04/01 07:16:42;;;;;;;7.67;5.27;;;15.40;34.50;;;;;;6332007;22;20186;-80
2021/04/01 07:19:35;;;;;;;10.73;5.93;;;15.60;33.20;;;;;;6331722;22;20353;-79
2021/04/01 07:44:48;;;;;;;8.30;5.00;;;16.90;30.10;;;;;;6329635;22;20402;-82
2021/04/01 07:47:18;;;;;;;9.43;5.73;;;17.00;29.60;;;;;;6326002;22;20392;-84
2021/04/01 07:49:47;;;;;;;7.50;4.50;;;17.10;29.00;;;;;;6319886;22;20411;-84
2021/04/01 07:52:14;;;;;;;7.80;5.13;;;17.30;28.60;;;;;;6317526;22;20486;-79
2021/04/01 07:54:56;;;;;;;10.63;5.03;;;17.50;28.20;;;;;;6316768;22;20915;-83
2021/04/01 08:00:16;;;;;;;12.77;5.10;;;17.70;27.70;;;;;;6317026;22;20429;-83
2021/04/01 08:02:51;;;;;;;5.60;4.27;;;17.90;27.40;;;;;;6320485;22;20413;-82
2021/04/01 08:05:24;;;;;;;8.37;4.90;;;18.00;27.50;;;;;;6318372;22;20416;-83
2021/04/01 08:07:54;;;;;;;9.10;5.00;;;18.00;27.50;;;;;;6318762;22;20373;-83
2021/04/01 08:10:25;;;;;;;6.90;5.30;;;18.10;27.50;;;;;;6321073;22;20402;-81
2021/04/01 08:12:56;;;;;;;7.37;4.40;;;18.20;27.60;;;;;;6322322;22;20382;-81
2021/04/01 08:15:26;;;;;;;10.13;4.50;;;18.30;26.80;;;;;;6322929;22;20441;-83
2021/04/01 08:18:00;;;;;;;11.80;4.80;;;18.30;26.70;;;;;;6322336;22;20401;-82
2021/04/01 08:20:30;;;;;;;5.83;4.07;;;18.30;26.90;;;;;;6324263;22;20463;-82
2021/04/01 08:23:05;;;;;;;12.40;4.90;;;18.20;27.20;;;;;;6322476;22;20448;-83
2021/04/01 08:25:37;;;;;;;10.50;4.90;;;18.10;27.50;;;;;;6325467;22;20395;-82
2021/04/01 08:28:28;;;;;;;5.40;4.30;;;18.00;27.50;;;;;;6324192;22;20376;-82
2021/04/01 08:36:54;;;;;;;6.00;4.43;;;17.80;27.30;;;;;;6223442;23;20480;-82
2021/04/01 08:39:23;;;;;;;11.20;5.20;;;17.80;27.30;;;;;;6223506;23;20413;-81
2021/04/01 08:42:23;;;;;;;9.70;4.70;;;17.80;27.30;;;;;;6226483;23;20425;-81
2021/04/01 08:45:19;;;;;;;6.63;4.87;;;18.00;27.50;;;;;;6223960;23;20443;-83
2021/04/01 08:48:00;;;;;;;7.00;4.57;;;18.30;27.00;;;;;;6208777;23;20417;-79
2021/04/01 08:50:32;;;;;;;10.80;4.67;;;18.60;26.60;;;;;;6237150;22;20380;-80
2021/04/01 08:53:15;;;;;;;6.33;3.83;;;18.90;26.30;;;;;;6238415;22;20372;-81
2021/04/01 08:55:49;;;;;;;7.37;4.40;;;19.00;26.10;;;;;;6238694;23;20410;-81
2021/04/01 08:58:26;;;;;;;9.43;5.03;;;19.10;26.20;;;;;;6225720;23;20408;-84
2021/04/01 09:01:07;;;;;;;6.37;4.70;;;19.20;26.00;;;;;;6225473;23;20496;-83
2021/04/01 09:03:37;;;;;;;14.90;5.13;;;19.40;25.80;;;;;;6228592;23;20416;-80
2021/04/01 09:06:05;;;;;;;4.57;4.17;;;19.60;25.50;;;;;;6239823;22;20373;-81
2021/04/01 09:08:37;;;;;;;7.10;3.80;;;19.70;24.80;;;;;;6318263;22;20391;-80
2021/04/01 09:11:04;;;;;;;10.47;4.60;;;19.90;24.50;;;;;;6325996;22;20366;-84
2021/04/01 09:13:31;;;;;;;6.80;4.50;;;20.10;24.10;;;;;;6323331;22;20386;-80
2021/04/01 09:16:02;;;;;;;6.97;4.10;;;20.10;23.80;;;;;;6333789;22;20404;-80
2021/04/01 09:18:30;;;;;;;6.10;4.67;;;20.20;23.60;;;;;;6333238;22;20418;-80
2021/04/01 09:20:59;;;;;;;10.90;4.13;;;20.40;23.50;;;;;;6332884;22;20393;-80
2021/04/01 09:23:33;;;;;;;7.50;4.47;;;20.50;23.30;;;;;;6334111;22;20396;-78
2021/04/01 09:26:01;;;;;;;7.60;4.40;;;20.60;23.70;;;;;;6333380;22;20418;-83
2021/04/01 09:28:31;;;;;;;9.90;4.23;;;20.50;23.20;;;;;;6327972;22;20389;-82
2021/04/01 09:31:01;;;;;;;6.97;4.73;;;20.60;23.30;;;;;;6331455;22;20374;-79
2021/04/01 09:33:30;;;;;;;18.67;4.40;;;20.70;23.00;;;;;;6331892;22;20415;-79
2021/04/01 09:36:08;;;;;;;8.10;4.30;;;20.80;22.60;;;;;;6333105;22;20395;-79
2021/04/01 09:38:39;;;;;;;8.83;4.97;;;21.00;22.70;;;;;;6323757;22;20774;-84
2021/04/01 09:41:07;;;;;;;5.00;4.30;;;21.10;21.60;;;;;;6322603;22;20986;-83
2021/04/01 09:43:34;;;;;;;6.80;4.63;;;21.10;22.10;;;;;;6323100;22;20419;-82
2021/04/01 09:46:12;;;;;;;9.50;4.80;;;21.20;21.70;;;;;;6325041;22;20500;-82
2021/04/01 09:48:42;;;;;;;8.63;3.90;;;21.30;21.60;;;;;;6330122;22;20369;-82
2021/04/01 09:51:19;;;;;;;10.97;4.57;;;21.40;21.70;;;;;;6331803;22;20462;-84
2021/04/01 09:53:53;;;;;;;10.60;3.87;;;21.60;21.80;;;;;;6328680;22;20458;-81
2021/04/01 09:56:24;;;;;;;11.33;3.93;;;21.60;21.80;;;;;;6325479;22;20850;-84
2021/04/01 09:58:52;;;;;;;10.33;4.00;;;21.60;21.80;;;;;;6321093;22;20422;-84
2021/04/01 10:01:28;;;;;;;4.30;3.90;;;21.80;21.20;;;;;;6322775;22;20409;-81
2021/04/01 10:03:57;;;;;;;6.53;4.27;;;21.80;20.70;;;;;;6320256;22;20430;-80
2021/04/01 10:06:31;;;;;;;9.00;4.57;;;21.80;20.50;;;;;;6318511;22;20448;-84
2021/04/01 10:09:07;;;;;;;5.80;4.37;;;22.00;20.30;;;;;;6319577;22;20361;-84
2021/04/01 10:11:39;;;;;;;6.63;3.90;;;22.00;19.70;;;;;;6316455;22;20379;-84
2021/04/01 10:14:07;;;;;;;9.80;4.40;;;21.80;20.10;;;;;;6317928;22;20436;-84
2021/04/01 10:16:34;;;;;;;8.67;3.93;;;21.90;20.50;;;;;;6318716;22;20399;-84
2021/04/01 10:19:03;;;;;;;7.47;3.80;;;22.20;20.20;;;;;;6318010;22;20421;-85
2021/04/01 10:21:30;;;;;;;8.77;4.30;;;22.40;20.20;;;;;;6332086;22;20449;-81
2021/04/01 10:23:58;;;;;;;6.07;3.93;;;22.40;20.40;;;;;;6332061;22;20411;-80
2021/04/01 10:26:31;;;;;;;5.87;4.13;;;22.50;20.30;;;;;;6330588;22;20384;-79
2021/04/01 10:29:01;;;;;;;6.70;4.87;;;22.60;20.30;;;;;;6324690;22;20388;-81
2021/04/01 10:31:28;;;;;;;4.80;4.30;;;22.60;20.10;;;;;;6325450;22;20384;-81
2021/04/01 10:34:15;;;;;;;5.20;3.60;;;22.70;20.50;;;;;;6327493;22;20427;-83
2021/04/01 10:36:43;;;;;;;13.40;3.77;;;23.00;19.90;;;;;;6319978;22;20389;-84
2021/04/01 10:39:11;;;;;;;6.07;4.23;;;23.30;19.50;;;;;;6315543;22;20431;-83
2021/04/01 10:41:46;;;;;;;6.23;3.67;;;23.50;19.00;;;;;;6314135;22;20876;-83
2021/04/01 10:44:13;;;;;;;9.70;3.60;;;23.60;18.80;;;;;;6317617;22;20415;-84
2021/04/01 10:46:43;;;;;;;7.87;5.37;;;23.60;18.80;;;;;;6313738;22;20415;-84
2021/04/01 10:49:10;;;;;;;10.30;3.70;;;23.70;18.60;;;;;;6315481;22;20558;-84
2021/04/01 10:51:38;;;;;;;7.97;3.37;;;23.60;18.30;;;;;;6320653;22;20414;-81
2021/04/01 10:54:10;;;;;;;5.80;3.07;;;23.50;18.80;;;;;;6323622;22;20435;-83
2021/04/01 10:56:46;;;;;;;6.70;3.53;;;23.40;17.60;;;;;;6326924;22;20387;-80
2021/04/01 10:59:13;;;;;;;5.83;4.20;;;23.30;17.60;;;;;;6322731;22;20784;-84
2021/04/01 11:01:42;;;;;;;6.43;3.60;;;23.40;18.00;;;;;;6314349;22;20930;-81
2021/04/01 11:04:10;;;;;;;6.77;3.70;;;23.40;17.60;;;;;;6314629;22;20438;-83
2021/04/01 11:06:38;;;;;;;7.67;3.83;;;23.30;18.00;;;;;;6315108;22;20391;-82
2021/04/01 11:09:09;;;;;;;7.17;3.77;;;23.30;18.10;;;;;;6312979;22;20411;-80
2021/04/01 11:11:53;;;;;;;6.50;3.80;;;23.50;17.90;;;;;;6312514;22;20419;-82
2021/04/01 11:14:23;;;;;;;11.40;3.73;;;23.60;18.00;;;;;;6317684;22;20495;-83
2021/04/01 11:16:51;;;;;;;9.13;3.93;;;23.70;17.90;;;;;;6321245;22;20459;-81
2021/04/01 11:19:19;;;;;;;4.80;3.80;;;23.80;17.80;;;;;;6314734;22;20438;-82
2021/04/01 11:21:46;;;;;;;7.10;3.30;;;24.00;17.60;;;;;;6314709;22;20548;-81
2021/04/01 11:24:13;;;;;;;9.63;3.67;;;24.20;17.40;;;;;;6312248;22;21074;-81
2021/04/01 11:26:41;;;;;;;9.83;3.90;;;24.30;17.40;;;;;;6311141;22;20410;-81
2021/04/01 11:29:13;;;;;;;5.73;3.80;;;24.40;17.10;;;;;;6311747;22;20418;-83
2021/04/01 11:31:40;;;;;;;6.60;4.30;;;24.20;17.20;;;;;;6311792;22;20435;-82
2021/04/01 11:34:07;;;;;;;10.37;4.23;;;24.10;17.20;;;;;;6311891;22;20431;-81
2021/04/01 11:36:38;;;;;;;5.80;3.50;;;24.00;17.30;;;;;;6312239;22;20410;-82
2021/04/01 11:39:24;;;;;;;7.17;4.37;;;24.20;17.30;;;;;;6314402;22;20758;-82
2021/04/01 11:41:51;;;;;;;5.20;4.10;;;24.30;17.20;;;;;;6314854;22;20442;-82
2021/04/01 11:44:18;;;;;;;4.70;4.27;;;24.50;17.10;;;;;;6316497;22;20406;-85
2021/04/01 11:46:45;;;;;;;6.93;4.17;;;24.20;17.40;;;;;;6320710;22;20411;-83
2021/04/01 11:49:11;;;;;;;6.20;4.20;;;24.30;17.70;;;;;;6321952;22;20894;-82
2021/04/01 11:51:38;;;;;;;13.47;4.40;;;24.50;17.50;;;;;;6319923;22;20407;-82
2021/04/01 11:54:06;;;;;;;5.97;5.03;;;24.60;17.60;;;;;;6316954;22;20763;-82
2021/04/01 11:56:38;;;;;;;7.90;4.43;;;24.60;18.00;;;;;;6321699;22;20437;-84
2021/04/01 11:59:10;;;;;;;10.20;4.37;;;24.90;17.40;;;;;;6325550;22;20430;-79
2021/04/01 12:01:47;;;;;;;7.17;4.10;;;25.10;17.10;;;;;;6321147;22;20426;-80
2021/04/01 12:04:15;;;;;;;8.40;4.77;;;25.20;17.20;;;;;;6318955;22;20753;-79
2021/04/01 12:06:41;;;;;;;5.77;4.50;;;25.30;17.00;;;;;;6322375;22;20404;-81
2021/04/01 12:09:09;;;;;;;8.73;4.53;;;25.10;16.70;;;;;;6321145;22;20393;-82
2021/04/01 12:11:40;;;;;;;6.63;3.97;;;25.00;17.20;;;;;;6322549;22;20536;-82
2021/04/01 12:14:08;;;;;;;7.47;4.47;;;25.10;16.70;;;;;;6323241;22;20431;-83
2021/04/01 12:16:35;;;;;;;6.37;4.23;;;25.20;16.20;;;;;;6323062;22;20746;-80
2021/04/01 12:19:02;;;;;;;5.80;4.37;;;25.20;15.90;;;;;;6322529;22;20439;-83
2021/04/01 12:21:29;;;;;;;10.20;4.27;;;25.10;16.00;;;;;;6330957;22;20453;-80
2021/04/01 12:23:57;;;;;;;4.77;4.27;;;24.90;16.50;;;;;;6319128;22;20481;-80
2021/04/01 12:26:23;;;;;;;7.23;4.30;;;24.60;16.90;;;;;;6322258;22;20787;-81
2021/04/01 12:28:57;;;;;;;5.37;4.00;;;24.80;16.70;;;;;;6328000;22;20399;-80
2021/04/01 12:31:32;;;;;;;8.57;4.43;;;25.10;16.30;;;;;;6323300;22;20411;-81
2021/04/01 12:33:59;;;;;;;15.17;4.93;;;25.20;15.90;;;;;;6317616;22;20509;-81
2021/04/01 12:36:33;;;;;;;7.50;4.67;;;25.40;16.00;;;;;;6323229;22;20402;-83
2021/04/01 12:38:59;;;;;;;8.50;4.90;;;25.60;16.10;;;;;;6324011;22;20426;-84
2021/04/01 12:41:27;;;;;;;6.93;4.00;;;25.90;16.80;;;;;;6332701;22;20876;-88
2021/04/01 12:43:55;;;;;;;7.83;4.67;;;25.90;16.30;;;;;;6333505;22;20430;-88
2021/04/01 12:46:22;;;;;;;7.17;4.40;;;25.80;16.20;;;;;;6331991;22;20416;-79
2021/04/01 12:48:52;;;;;;;14.83;4.13;;;25.50;16.00;;;;;;6318071;22;20391;-81
2021/04/01 12:51:20;;;;;;;8.70;4.40;;;25.30;14.70;;;;;;6319510;22;20509;-83
2021/04/01 12:54:01;;;;;;;9.10;4.20;;;25.20;15.90;;;;;;6313108;22;20450;-83
2021/04/01 12:56:31;;;;;;;8.57;3.47;;;24.90;15.70;;;;;;6325779;22;20387;-85
2021/04/01 12:59:00;;;;;;;9.87;4.20;;;24.90;15.70;;;;;;6327417;22;20470;-84
2021/04/01 13:01:30;;;;;;;5.20;4.37;;;24.90;15.70;;;;;;6326737;22;20401;-83
2021/04/01 13:04:02;;;;;;;10.70;4.10;;;25.10;15.80;;;;;;6317704;22;20464;-84
2021/04/01 13:06:39;;;;;;;6.30;5.07;;;25.10;14.00;;;;;;6294855;22;20386;-84
2021/04/01 13:09:26;;;;;;;7.20;3.97;;;25.40;12.10;;;;;;6292270;22;20422;-85
2021/04/01 13:11:54;;;;;;;8.43;4.00;;;25.60;13.30;;;;;;6303728;22;20400;-86
2021/04/01 13:14:22;;;;;;;6.77;3.63;;;25.90;13.30;;;;;;6305178;22;20423;-85
2021/04/01 13:16:50;;;;;;;4.50;3.80;;;26.10;13.40;;;;;;6304852;22;20404;-86
2021/04/01 13:19:18;;;;;;;6.63;3.63;;;25.90;14.10;;;;;;6297563;22;20534;-86
2021/04/01 13:21:54;;;;;;;6.33;4.10;;;25.50;14.50;;;;;;6291970;22;20392;-83
2021/04/01 13:24:27;;;;;;;5.60;3.90;;;25.50;14.80;;;;;;6300404;22;20447;-83
2021/04/01 13:26:55;;;;;;;5.60;4.30;;;25.50;14.90;;;;;;6303126;22;20407;-83
2021/04/01 13:29:25;;;;;;;8.43;4.30;;;25.10;15.80;;;;;;6303871;22;20420;-86
2021/04/01 13:31:57;;;;;;;4.93;3.50;;;25.50;14.70;;;;;;6304031;22;20412;-84
2021/04/01 13:34:28;;;;;;;4.07;3.70;;;25.90;14.30;;;;;;6293936;22;20439;-84
2021/04/01 13:37:01;;;;;;;7.90;4.30;;;25.90;14.10;;;;;;6289703;22;20386;-83
2021/04/01 13:39:31;;;;;;;10.50;4.10;;;25.50;14.80;;;;;;6288571;22;20465;-81
2021/04/01 13:42:06;;;;;;;8.10;4.23;;;25.00;15.30;;;;;;6288822;22;20397;-84
2021/04/01 13:44:38;;;;;;;7.57;3.80;;;25.00;14.70;;;;;;6299673;22;20436;-84
2021/04/01 13:47:07;;;;;;;5.57;3.80;;;25.10;15.30;;;;;;6303188;22;20403;-84
2021/04/01 13:49:36;;;;;;;5.77;3.33;;;25.20;15.10;;;;;;6303713;22;20411;-84
2021/04/01 13:52:11;;;;;;;4.93;3.90;;;25.40;15.10;;;;;;6304112;22;20427;-86
2021/04/01 13:54:55;;;;;;;8.33;3.80;;;25.70;14.70;;;;;;6304486;22;20430;-85
2021/04/01 14:00:27;;;;;;;4.80;4.30;;;25.40;16.00;;;;;;6299911;22;20407;-84
2021/04/01 14:11:37;;;;;;;6.83;4.80;;;25.20;15.60;;;;;;6278694;22;20412;-85
2021/04/01 14:14:04;;;;;;;9.87;5.03;;;24.90;15.70;;;;;;6293653;22;20435;-86
2021/04/01 14:16:31;;;;;;;8.93;5.87;;;24.80;15.60;;;;;;6292943;22;20416;-86
2021/04/01 14:18:59;;;;;;;10.33;6.97;;;25.20;15.90;;;;;;6294589;22;20458;-86
2021/04/01 14:21:27;;;;;;;13.10;8.40;;;25.30;15.60;;;;;;6298986;22;20863;-84
2021/04/01 14:23:54;;;;;;;12.87;7.17;;;25.20;15.90;;;;;;6299387;22;20443;-85
2021/04/01 14:26:25;;;;;;;11.50;7.73;;;25.10;15.80;;;;;;6303027;22;20411;-84
2021/04/01 14:28:52;;;;;;;16.70;7.53;;;25.10;15.80;;;;;;6303509;22;20419;-83
2021/04/01 14:31:19;;;;;;;15.37;9.30;;;25.10;15.80;;;;;;6301591;22;20416;-84
2021/04/01 14:33:48;;;;;;;10.63;7.90;;;24.80;15.60;;;;;;6289062;22;20413;-86
2021/04/01 14:36:18;;;;;;;11.27;8.20;;;24.80;15.60;;;;;;6283383;22;20416;-86
2021/04/01 14:38:46;;;;;;;13.70;7.90;;;24.80;15.60;;;;;;6283536;22;20485;-84
2021/04/01 14:41:16;;;;;;;14.83;9.60;;;25.00;15.80;;;;;;6283420;22;20420;-87
2021/04/01 14:43:51;;;;;;;18.63;11.43;;;24.90;15.70;;;;;;6289450;22;20459;-85
2021/04/01 14:46:18;;;;;;;16.13;11.30;;;24.90;15.50;;;;;;6286984;22;20443;-86
2021/04/01 14:48:45;;;;;;;16.10;10.50;;;24.70;15.50;;;;;;6288717;22;20498;-86
2021/04/01 14:51:12;;;;;;;19.27;11.50;;;24.70;15.50;;;;;;6286695;22;20442;-84
2021/04/01 14:53:44;;;;;;;21.20;12.60;;;24.70;15.50;;;;;;6285785;22;20416;-85
2021/04/01 14:56:14;;;;;;;20.63;11.40;;;24.70;15.50;;;;;;6285845;22;20396;-86
2021/04/01 14:58:42;;;;;;;15.87;11.53;;;24.70;15.50;;;;;;6285505;22;20522;-84
2021/04/01 15:01:09;;;;;;;18.30;11.80;;;24.80;15.60;;;;;;6291490;22;20419;-84
2021/04/01 15:03:38;;;;;;;19.60;12.13;;;24.90;15.40;;;;;;6303066;22;20442;-85
2021/04/01 15:06:06;;;;;;;17.23;11.00;;;25.10;15.80;;;;;;6303228;22;20431;-83
2021/04/01 15:08:35;;;;;;;16.67;11.37;;;25.10;15.80;;;;;;6303321;22;20385;-84
2021/04/01 15:11:02;;;;;;;21.93;13.17;;;24.70;15.50;;;;;;6303511;22;20396;-85
2021/04/01 15:13:29;;;;;;;19.40;12.77;;;24.60;15.50;;;;;;6303109;22;20438;-83
2021/04/01 15:15:56;;;;;;;19.27;12.27;;;24.70;15.50;;;;;;6302569;22;20410;-85
2021/04/01 15:18:24;;;;;;;21.20;13.80;;;24.60;15.50;;;;;;6302535;22;20461;-85
2021/04/01 15:20:51;;;;;;;17.90;11.30;;;24.70;15.00;;;;;;6298982;22;20477;-84
2021/04/01 15:23:18;;;;;;;18.23;11.93;;;24.80;15.00;;;;;;6298556;22;20392;-86
2021/04/01 15:25:46;;;;;;;18.67;13.27;;;24.80;15.60;;;;;;6297358;22;20411;-86
2021/04/01 15:28:13;;;;;;;26.87;15.93;;;24.90;15.70;;;;;;6296332;22;20404;-84
2021/04/01 15:30:41;;;;;;;24.50;15.37;;;24.80;15.60;;;;;;6297348;22;20407;-85
2021/04/01 15:33:08;;;;;;;22.90;15.20;;;24.60;15.50;;;;;;6296627;22;20397;-86
2021/04/01 15:35:35;;;;;;;29.73;15.73;;;24.60;15.50;;;;;;6297977;22;20495;-85
2021/04/01 15:38:02;;;;;;;23.30;15.83;;;24.50;15.40;;;;;;6296021;22;20454;-86
2021/04/01 15:40:29;;;;;;;20.30;14.40;;;24.50;15.40;;;;;;6296364;22;20423;-85
2021/04/01 15:42:55;;;;;;;22.37;15.13;;;24.60;15.50;;;;;;6296055;22;20504;-85
2021/04/01 15:45:22;;;;;;;26.10;15.60;;;24.60;15.50;;;;;;6295531;22;20435;-86
2021/04/01 15:47:50;;;;;;;24.20;16.00;;;24.60;15.50;;;;;;6295781;22;20396;-85
2021/04/01 15:50:17;;;;;;;31.07;18.23;;;24.60;15.50;;;;;;6292529;22;20393;-84
2021/04/01 15:52:44;;;;;;;27.13;15.83;;;24.10;16.00;;;;;;6294594;22;20422;-85
2021/04/01 15:55:12;;;;;;;28.60;17.37;;;24.20;15.70;;;;;;6302437;22;20435;-84
2021/04/01 15:57:40;;;;;;;26.67;16.70;;;24.30;15.70;;;;;;6300809;22;20416;-83
2021/04/01 16:00:09;;;;;;;28.73;16.67;;;24.30;15.30;;;;;;6292104;22;20893;-86
2021/04/01 16:02:37;;;;;;;31.53;17.00;;;24.40;15.40;;;;;;6292986;22;20411;-86
2021/04/01 16:05:07;;;;;;;27.30;17.60;;;24.30;15.30;;;;;;6301570;22;20427;-85
2021/04/01 16:07:34;;;;;;;29.50;17.07;;;24.30;15.30;;;;;;6302924;22;20485;-84
2021/04/01 16:10:01;;;;;;;24.00;15.03;;;24.40;15.30;;;;;;6302299;22;20384;-84
2021/04/01 16:12:28;;;;;;;26.90;15.93;;;24.40;15.30;;;;;;6299054;22;20431;-86
2021/04/01 16:14:55;;;;;;;28.53;15.40;;;24.30;15.30;;;;;;6299139;22;20424;-85
2021/04/01 16:17:22;;;;;;;23.50;16.10;;;24.30;15.30;;;;;;6302927;22;20424;-84
2021/04/01 16:19:48;;;;;;;24.30;15.13;;;24.20;15.20;;;;;;6302757;22;20479;-83
2021/04/01 16:22:16;;;;;;;24.30;16.17;;;24.20;15.20;;;;;;6303080;22;20392;-85
2021/04/01 16:24:43;;;;;;;26.00;16.47;;;24.00;15.10;;;;;;6302586;22;20435;-83
2021/04/01 16:27:10;;;;;;;22.73;15.50;;;24.00;15.10;;;;;;6302917;22;20463;-84
2021/04/01 16:29:37;;;;;;;24.80;14.60;;;24.00;15.10;;;;;;6302615;22;20415;-86
2021/04/01 16:32:05;;;;;;;20.80;13.53;;;24.00;15.10;;;;;;6297478;22;20383;-85
2021/04/01 16:34:34;;;;;;;19.57;14.40;;;24.00;15.10;;;;;;6289168;22;20443;-85
2021/04/01 16:37:01;;;;;;;20.00;13.13;;;24.00;15.10;;;;;;6297306;22;20412;-86
2021/04/01 16:39:30;;;;;;;20.37;13.10;;;24.00;15.00;;;;;;6296457;22;20443;-84
2021/04/01 16:41:58;;;;;;;22.00;12.17;;;23.90;15.00;;;;;;6302359;22;20416;-83
2021/04/01 16:44:24;;;;;;;23.20;12.90;;;23.90;15.00;;;;;;6302510;22;20420;-84
2021/04/01 16:46:51;;;;;;;23.60;13.30;;;23.90;14.60;;;;;;6302920;22;20426;-85
2021/04/01 16:49:18;;;;;;;19.17;12.70;;;23.80;14.30;;;;;;6302353;22;20411;-84
2021/04/01 16:51:47;;;;;;;21.13;13.30;;;23.80;14.60;;;;;;6301820;22;20384;-85
2021/04/01 16:54:16;;;;;;;21.10;12.00;;;23.70;14.80;;;;;;6301673;22;20462;-83
2021/04/01 16:56:50;;;;;;;22.70;12.43;;;23.70;14.80;;;;;;6290199;22;20403;-86
2021/04/01 16:59:17;;;;;;;18.93;12.20;;;23.50;14.70;;;;;;6296124;22;20451;-85
2021/04/01 17:01:44;;;;;;;19.73;11.70;;;23.50;14.70;;;;;;6302135;22;20914;-84
2021/04/01 17:04:14;;;;;;;15.50;10.87;;;23.50;14.70;;;;;;6302965;22;20447;-84
2021/04/01 17:06:41;;;;;;;20.30;10.40;;;23.40;14.60;;;;;;6301331;22;20519;-84
2021/04/01 17:09:08;;;;;;;17.30;10.07;;;23.30;14.50;;;;;;6304760;22;20404;-84
2021/04/01 17:11:35;;;;;;;13.93;9.87;;;23.20;14.50;;;;;;6302971;22;20406;-85
2021/04/01 17:14:03;;;;;;;16.23;10.40;;;23.10;14.40;;;;;;6285368;22;20436;-85
2021/04/01 17:16:31;;;;;;;13.80;9.33;;;23.00;14.30;;;;;;6285121;22;20386;-85
2021/04/01 17:18:57;;;;;;;18.37;10.50;;;23.00;14.30;;;;;;6293358;22;20431;-85
2021/04/01 17:21:24;;;;;;;13.77;9.37;;;22.90;14.30;;;;;;6303737;22;20396;-84
2021/04/01 17:23:53;;;;;;;20.97;10.50;;;22.90;14.30;;;;;;6304004;22;20404;-86
2021/04/01 17:26:20;;;;;;;14.53;10.40;;;22.80;14.20;;;;;;6304538;22;20396;-86
2021/04/01 17:28:47;;;;;;;17.47;10.93;;;22.70;14.10;;;;;;6303465;22;20411;-85
2021/04/01 17:31:15;;;;;;;20.67;11.40;;;22.60;14.00;;;;;;6292005;22;20441;-83
2021/04/01 17:33:42;;;;;;;16.10;10.13;;;22.40;14.50;;;;;;6290173;22;20394;-83
2021/04/01 17:36:10;;;;;;;20.57;7.33;;;22.20;14.00;;;;;;6290105;22;20419;-83
2021/04/01 17:38:37;;;;;;;19.37;8.07;;;22.20;13.80;;;;;;6291217;22;20439;-83
2021/04/01 17:41:03;;;;;;;11.53;8.00;;;22.30;13.80;;;;;;6289518;22;20420;-82
2021/04/01 17:43:31;;;;;;;10.20;6.77;;;22.20;13.80;;;;;;6289926;22;20400;-85
2021/04/01 17:45:58;;;;;;;15.57;6.80;;;22.00;13.90;;;;;;6290409;22;20392;-81
2021/04/01 17:48:26;;;;;;;16.20;6.07;;;21.90;14.20;;;;;;6289129;22;20443;-82
2021/04/01 17:50:52;;;;;;;8.10;4.77;;;21.80;14.10;;;;;;6290014;22;20416;-82
2021/04/01 17:53:19;;;;;;;8.93;5.70;;;21.70;13.80;;;;;;6288272;22;20411;-83
2021/04/01 17:55:54;;;;;;;14.40;5.00;;;21.70;13.40;;;;;;6288942;22;20404;-83
2021/04/01 17:58:21;;;;;;;7.63;5.50;;;21.50;13.90;;;;;;6288537;22;20449;-83
2021/04/01 18:00:51;;;;;;;11.53;4.60;;;21.50;13.30;;;;;;6289116;22;20416;-83
2021/04/01 18:03:35;;;;;;;7.47;4.30;;;21.40;13.20;;;;;;6286975;22;20446;-84
2021/04/01 18:09:24;;;;;;;8.33;4.70;;;21.20;13.90;;;;;;6284464;22;20458;-83
2021/04/01 18:25:46;;;;;;;7.07;4.13;;;20.60;15.00;;;;;;6291297;22;20419;-85
2021/04/01 18:28:18;;;;;;;10.63;3.90;;;20.50;15.20;;;;;;6290853;22;20511;-86
2021/04/01 18:30:47;;;;;;;9.60;4.10;;;20.40;15.50;;;;;;6291783;22;20404;-86
2021/04/01 18:33:21;;;;;;;6.97;4.20;;;20.30;15.60;;;;;;6291991;22;20397;-87
2021/04/01 18:35:56;;;;;;;8.73;4.47;;;20.20;15.70;;;;;;6291585;22;20419;-87
2021/04/01 18:38:30;;;;;;;11.30;4.27;;;20.10;15.90;;;;;;6299613;22;20450;-84
2021/04/01 18:41:05;;;;;;;10.60;4.30;;;20.10;16.10;;;;;;6296002;22;20412;-87
2021/04/01 18:43:31;;;;;;;13.83;5.10;;;20.00;16.40;;;;;;6300260;22;20406;-85
2021/04/01 18:46:01;;;;;;;10.43;4.90;;;19.90;16.40;;;;;;6303545;22;20661;-85